createdAt,value
2018-09-02T00:00:43.887Z,19.53
2018-09-02T00:03:12.726Z,19.57
2018-09-02T00:05:41.593Z,19.64
2018-09-02T00:08:10.488Z,19.55
2018-09-02T00:10:39.259Z,19.50
2018-09-02T00:13:08.077Z,19.49
2018-09-02T00:15:36.874Z,19.45
2018-09-02T00:18:05.780Z,19.45
2018-09-02T00:20:34.668Z,19.53
2018-09-02T00:23:03.398Z,19.56
2018-09-02T00:25:32.220Z,19.56
2018-09-02T00:28:01.142Z,19.56
2018-09-02T00:30:29.975Z,19.45
2018-09-02T00:32:58.763Z,19.29
2018-09-02T00:35:27.534Z,19.19
2018-09-02T00:37:56.282Z,19.29
2018-09-02T00:40:25.040Z,19.34
2018-09-02T00:42:53.887Z,19.29
2018-09-02T00:45:22.608Z,19.24
2018-09-02T00:47:51.302Z,19.17
2018-09-02T00:50:19.986Z,19.09
2018-09-02T00:52:48.711Z,19.12
2018-09-02T00:55:17.432Z,19.16
2018-09-02T00:57:46.127Z,19.11
2018-09-02T01:00:14.911Z,19.12
2018-09-02T01:02:43.699Z,19.08
2018-09-02T01:05:12.602Z,19.09
2018-09-02T01:07:41.318Z,18.99
2018-09-02T01:10:10.096Z,18.92
2018-09-02T01:12:38.819Z,18.85
2018-09-02T01:15:07.706Z,18.92
2018-09-02T01:17:36.436Z,18.97
2018-09-02T01:20:05.409Z,18.90
2018-09-02T01:22:34.216Z,18.82
2018-09-02T01:25:02.951Z,18.76
2018-09-02T01:27:31.604Z,18.73
2018-09-02T01:30:00.284Z,18.68
2018-09-02T01:32:29.135Z,18.64
2018-09-02T01:34:57.876Z,18.76
2018-09-02T01:37:26.628Z,18.83
2018-09-02T01:39:55.519Z,18.74
2018-09-02T01:42:24.267Z,18.71
2018-09-02T01:44:52.979Z,18.62
2018-09-02T01:47:21.736Z,18.58
2018-09-02T01:49:50.474Z,18.47
2018-09-02T01:52:19.159Z,18.42
2018-09-02T01:54:47.945Z,18.54
2018-09-02T01:57:16.959Z,18.58
2018-09-02T01:59:45.741Z,18.51
2018-09-02T02:02:14.532Z,18.44
2018-09-02T02:04:43.713Z,18.35
2018-09-02T02:07:13.671Z,18.33
2018-09-02T02:09:42.871Z,18.23
2018-09-02T02:12:11.563Z,18.21
2018-09-02T02:14:40.240Z,18.28
2018-09-02T02:17:09.114Z,18.37
2018-09-02T02:19:37.866Z,18.45
2018-09-02T02:22:06.600Z,18.57
2018-09-02T02:24:35.404Z,18.52
2018-09-02T02:27:04.299Z,18.46
2018-09-02T02:29:33.123Z,18.41
2018-09-02T02:32:01.871Z,18.44
2018-09-02T02:34:30.617Z,18.43
2018-09-02T02:36:59.342Z,18.21
2018-09-02T02:39:28.128Z,18.19
2018-09-02T02:41:56.909Z,18.23
2018-09-02T02:44:25.676Z,18.20
2018-09-02T02:46:54.491Z,18.16
2018-09-02T02:49:23.200Z,18.11
2018-09-02T02:51:51.912Z,18.00
2018-09-02T02:54:20.708Z,17.75
2018-09-02T02:56:49.445Z,17.77
2018-09-02T02:59:18.179Z,17.82
2018-09-02T03:01:46.973Z,17.77
2018-09-02T03:04:15.670Z,17.83
2018-09-02T03:06:44.385Z,17.80
2018-09-02T03:09:13.518Z,17.80
2018-09-02T03:11:42.604Z,17.90
2018-09-02T03:14:11.856Z,17.73
2018-09-02T03:16:40.774Z,17.55
2018-09-02T03:19:10.035Z,17.36
2018-09-02T03:21:38.854Z,17.33
2018-09-02T03:24:07.629Z,17.38
2018-09-02T03:26:36.441Z,17.39
2018-09-02T03:29:05.163Z,17.42
2018-09-02T03:31:33.987Z,17.42
2018-09-02T03:34:02.719Z,17.41
2018-09-02T03:36:31.462Z,17.37
2018-09-02T03:39:00.182Z,17.31
2018-09-02T03:41:28.914Z,17.36
2018-09-02T03:43:57.863Z,17.34
2018-09-02T03:46:26.576Z,17.41
2018-09-02T03:48:55.434Z,17.22
2018-09-02T03:51:24.276Z,17.36
2018-09-02T03:53:53.025Z,17.40
2018-09-02T03:56:21.720Z,16.46
2018-09-02T03:58:50.523Z,17.58
2018-09-02T04:01:19.265Z,17.47
2018-09-02T04:03:48.022Z,17.38
2018-09-02T04:06:16.815Z,17.47
2018-09-02T04:08:45.609Z,17.63
2018-09-02T04:11:14.457Z,17.76
2018-09-02T04:13:43.099Z,17.86
2018-09-02T04:16:11.994Z,17.97
2018-09-02T04:18:40.710Z,18.06
2018-09-02T04:21:09.466Z,18.08
2018-09-02T04:23:38.203Z,18.22
2018-09-02T04:26:06.952Z,18.34
2018-09-02T04:28:35.785Z,18.36
2018-09-02T04:31:04.505Z,18.44
2018-09-02T04:33:33.236Z,18.69
2018-09-02T04:36:01.943Z,18.73
2018-09-02T04:38:30.672Z,18.84
2018-09-02T04:40:59.391Z,19.16
2018-09-02T04:43:28.076Z,19.24
2018-09-02T04:45:56.813Z,19.30
2018-09-02T04:48:25.527Z,19.35
2018-09-02T04:50:54.255Z,19.33
2018-09-02T04:53:22.958Z,19.41
2018-09-02T04:55:51.693Z,19.64
2018-09-02T04:58:20.456Z,19.84
2018-09-02T05:00:49.249Z,19.86
2018-09-02T05:03:17.985Z,19.84
2018-09-02T05:05:46.746Z,20.05
2018-09-02T05:08:15.573Z,20.29
2018-09-02T05:10:44.306Z,20.48
2018-09-02T05:13:13.211Z,20.81
2018-09-02T05:15:41.907Z,21.02
2018-09-02T05:18:10.730Z,21.08
2018-09-02T05:20:39.391Z,21.44
2018-09-02T05:23:08.120Z,21.74
2018-09-02T05:25:36.958Z,21.79
2018-09-02T05:28:06.721Z,22.30
2018-09-02T05:30:35.663Z,22.36
2018-09-02T05:33:04.603Z,22.47
2018-09-02T05:35:33.388Z,22.71
2018-09-02T05:38:02.159Z,22.69
2018-09-02T05:40:30.954Z,22.99
2018-09-02T05:42:59.811Z,23.11
2018-09-02T05:45:28.615Z,23.20
2018-09-02T05:47:57.298Z,23.58
2018-09-02T05:50:26.193Z,23.79
2018-09-02T05:52:54.879Z,23.72
2018-09-02T05:55:23.603Z,23.62
2018-09-02T05:57:52.327Z,23.67
2018-09-02T06:00:21.072Z,24.22
2018-09-02T06:02:49.960Z,24.37
2018-09-02T06:05:26.144Z,24.49
2018-09-02T06:07:56.143Z,24.25
2018-09-02T06:10:25.190Z,24.40
2018-09-02T06:12:53.993Z,24.96
2018-09-02T06:15:22.696Z,24.78
2018-09-02T06:17:51.415Z,24.67
2018-09-02T06:20:20.172Z,24.83
2018-09-02T06:22:48.964Z,24.87
2018-09-02T06:25:17.776Z,24.94
2018-09-02T06:27:46.833Z,24.91
2018-09-02T06:30:15.820Z,25.06
2018-09-02T06:32:44.686Z,25.18
2018-09-02T06:35:13.956Z,25.28
2018-09-02T06:37:42.766Z,25.48
2018-09-02T06:40:11.537Z,26.07
2018-09-02T06:42:40.353Z,26.67
2018-09-02T06:45:09.207Z,26.60
2018-09-02T06:47:38.250Z,26.50
2018-09-02T06:50:07.400Z,26.72
2018-09-02T06:52:36.270Z,26.82
2018-09-02T06:55:05.210Z,26.53
2018-09-02T06:57:33.985Z,27.11
2018-09-02T07:00:02.718Z,27.11
2018-09-02T07:02:31.448Z,26.66
2018-09-02T07:05:00.346Z,27.15
2018-09-02T07:07:29.200Z,27.90
2018-09-02T07:09:57.855Z,28.28
2018-09-02T07:12:26.631Z,28.48
2018-09-02T07:14:55.484Z,28.06
2018-09-02T07:17:24.292Z,28.10
2018-09-02T07:19:53.148Z,28.17
2018-09-02T07:22:21.965Z,27.98
2018-09-02T07:24:50.805Z,27.96
2018-09-02T07:27:19.577Z,27.37
2018-09-02T07:29:48.248Z,27.92
2018-09-02T07:32:17.153Z,28.03
2018-09-02T07:34:45.961Z,28.35
2018-09-02T07:37:14.773Z,28.94
2018-09-02T07:39:43.510Z,28.17
2018-09-02T07:42:12.347Z,28.63
2018-09-02T07:44:41.324Z,29.06
2018-09-02T07:47:10.006Z,29.16
2018-09-02T07:49:38.788Z,28.83
2018-09-02T07:52:07.625Z,29.05
2018-09-02T07:54:36.462Z,29.48
2018-09-02T07:57:05.224Z,29.75
2018-09-02T07:59:34.067Z,30.04
2018-09-02T08:02:02.975Z,29.82
2018-09-02T08:04:31.713Z,30.26
2018-09-02T08:07:00.559Z,29.84
2018-09-02T08:09:29.413Z,30.34
2018-09-02T08:11:58.215Z,30.35
2018-09-02T08:14:27.040Z,31.05
2018-09-02T08:16:55.838Z,31.76
2018-09-02T08:19:24.631Z,30.81
2018-09-02T08:21:53.582Z,31.01
2018-09-02T08:24:22.446Z,31.73
2018-09-02T08:26:51.126Z,31.56
2018-09-02T08:29:19.942Z,30.80
2018-09-02T08:31:48.748Z,30.83
2018-09-02T08:34:17.495Z,31.15
2018-09-02T08:36:46.316Z,30.98
2018-09-02T08:39:15.322Z,31.33
2018-09-02T08:41:44.079Z,31.77
2018-09-02T08:44:13.090Z,32.00
2018-09-02T08:46:41.898Z,31.81
2018-09-02T08:49:10.746Z,32.03
2018-09-02T08:51:39.632Z,31.77
2018-09-02T08:54:08.884Z,32.01
2018-09-02T08:56:37.734Z,32.08
2018-09-02T08:59:06.465Z,31.66
2018-09-02T09:01:35.402Z,32.60
2018-09-02T09:04:04.132Z,32.26
2018-09-02T09:06:32.899Z,32.65
2018-09-02T09:09:01.802Z,32.40
2018-09-02T09:11:30.436Z,28.49
2018-09-02T09:13:59.170Z,32.82
2018-09-02T09:16:28.073Z,32.99
2018-09-02T09:18:56.732Z,32.87
2018-09-02T09:21:25.563Z,32.57
2018-09-02T09:23:54.305Z,32.67
2018-09-02T09:26:23.055Z,33.16
2018-09-02T09:28:51.763Z,33.48
2018-09-02T09:31:20.535Z,33.88
2018-09-02T09:33:49.262Z,33.59
2018-09-02T09:36:18.059Z,33.38
2018-09-02T09:38:46.902Z,33.63
2018-09-02T09:41:15.580Z,34.12
2018-09-02T09:43:44.226Z,33.61
2018-09-02T09:46:13.003Z,33.59
2018-09-02T09:48:41.686Z,33.74
2018-09-02T09:51:10.347Z,33.28
2018-09-02T09:53:39.053Z,32.68
2018-09-02T09:56:07.778Z,32.94
2018-09-02T09:58:36.417Z,32.94
2018-09-02T10:01:05.155Z,33.10
2018-09-02T10:03:33.940Z,33.32
2018-09-02T10:06:02.636Z,33.04
2018-09-02T10:08:31.383Z,33.45
2018-09-02T10:11:00.204Z,34.16
2018-09-02T10:13:29.558Z,32.78
2018-09-02T10:15:58.332Z,33.85
2018-09-02T10:18:27.135Z,33.11
2018-09-02T10:20:56.693Z,33.11
2018-09-02T10:23:25.525Z,33.37
2018-09-02T10:25:54.325Z,33.02
2018-09-02T10:28:23.090Z,34.14
2018-09-02T10:30:51.904Z,34.62
2018-09-02T10:33:20.806Z,33.99
2018-09-02T10:35:49.550Z,33.81
2018-09-02T10:38:18.258Z,33.73
2018-09-02T10:40:47.036Z,33.47
2018-09-02T10:43:15.812Z,34.18
2018-09-02T10:45:44.546Z,34.99
2018-09-02T10:48:13.299Z,34.72
2018-09-02T10:50:42.072Z,34.42
2018-09-02T10:53:10.866Z,34.19
2018-09-02T10:55:39.922Z,33.26
2018-09-02T10:58:08.607Z,33.52
2018-09-02T11:00:37.412Z,33.19
2018-09-02T11:03:06.402Z,33.26
2018-09-02T11:05:35.166Z,34.60
2018-09-02T11:08:04.044Z,34.21
2018-09-02T11:10:32.710Z,33.94
2018-09-02T11:13:01.448Z,33.84
2018-09-02T11:15:30.150Z,34.98
2018-09-02T11:17:59.010Z,34.92
2018-09-02T11:20:27.728Z,34.23
2018-09-02T11:22:56.418Z,33.97
2018-09-02T11:25:25.140Z,33.73
2018-09-02T11:27:53.825Z,34.33
2018-09-02T11:30:22.571Z,33.98
2018-09-02T11:32:51.326Z,33.94
2018-09-02T11:35:20.066Z,34.53
2018-09-02T11:37:48.842Z,35.63
2018-09-02T11:40:17.517Z,34.67
2018-09-02T11:42:46.195Z,34.49
2018-09-02T11:45:14.859Z,34.71
2018-09-02T11:47:43.568Z,34.51
2018-09-02T11:50:12.291Z,34.72
2018-09-02T11:52:40.963Z,34.43
2018-09-02T11:55:09.766Z,34.89
2018-09-02T11:57:38.523Z,35.28
2018-09-02T12:00:07.503Z,34.86
2018-09-02T12:02:36.222Z,34.44
2018-09-02T12:05:05.035Z,34.58
2018-09-02T12:07:33.719Z,33.96
2018-09-02T12:10:02.465Z,32.82
2018-09-02T12:12:31.287Z,32.83
2018-09-02T12:15:00.844Z,33.37
2018-09-02T12:17:29.491Z,33.08
2018-09-02T12:19:58.185Z,33.22
2018-09-02T12:22:26.882Z,32.81
2018-09-02T12:24:55.550Z,32.87
2018-09-02T12:27:24.293Z,33.14
2018-09-02T12:29:53.049Z,33.57
2018-09-02T12:32:21.721Z,32.64
2018-09-02T12:34:50.385Z,32.94
2018-09-02T12:37:19.053Z,33.03
2018-09-02T12:39:47.697Z,33.30
2018-09-02T12:42:16.415Z,33.27
2018-09-02T12:44:45.112Z,33.14
2018-09-02T12:47:14.041Z,32.89
2018-09-02T12:49:42.784Z,33.36
2018-09-02T12:52:11.481Z,32.85
2018-09-02T12:54:40.235Z,33.15
2018-09-02T12:57:08.925Z,33.26
2018-09-02T12:59:37.724Z,32.87
2018-09-02T13:02:06.603Z,32.87
2018-09-02T13:04:35.474Z,32.35
2018-09-02T13:07:04.174Z,31.99
2018-09-02T13:09:33.012Z,31.91
2018-09-02T13:12:01.753Z,31.57
2018-09-02T13:14:30.555Z,31.23
2018-09-02T13:16:59.342Z,31.20
2018-09-02T13:19:28.064Z,31.27
2018-09-02T13:21:56.828Z,31.38
2018-09-02T13:24:25.577Z,31.10
2018-09-02T13:26:54.210Z,30.87
2018-09-02T13:29:23.022Z,30.98
2018-09-02T13:31:51.884Z,30.99
2018-09-02T13:34:20.605Z,31.06
2018-09-02T13:36:49.430Z,31.12
2018-09-02T13:39:18.172Z,30.86
2018-09-02T13:41:47.055Z,30.62
2018-09-02T13:44:15.809Z,30.69
2018-09-02T13:46:44.555Z,30.80
2018-09-02T13:49:13.565Z,30.83
2018-09-02T13:51:42.786Z,30.87
2018-09-02T13:54:11.640Z,30.77
2018-09-02T13:56:41.102Z,30.73
2018-09-02T13:59:09.751Z,30.85
2018-09-02T14:01:38.780Z,30.78
2018-09-02T14:04:07.697Z,30.76
2018-09-02T14:06:36.515Z,30.61
2018-09-02T14:09:06.326Z,30.63
2018-09-02T14:11:35.085Z,30.70
2018-09-02T14:14:03.882Z,30.69
2018-09-02T14:16:32.663Z,30.63
2018-09-02T14:19:01.440Z,30.48
2018-09-02T14:21:30.218Z,30.54
2018-09-02T14:23:58.898Z,30.44
2018-09-02T14:26:27.774Z,30.40
2018-09-02T14:28:56.491Z,30.40
2018-09-02T14:31:25.191Z,30.41
2018-09-02T14:33:53.962Z,30.54
2018-09-02T14:36:22.704Z,30.56
2018-09-02T14:38:51.635Z,30.41
2018-09-02T14:41:20.423Z,30.44
2018-09-02T14:43:49.408Z,30.44
2018-09-02T14:46:18.141Z,30.45
2018-09-02T14:48:46.944Z,30.50
2018-09-02T14:51:15.720Z,30.50
2018-09-02T14:53:44.397Z,30.38
2018-09-02T14:56:13.195Z,30.30
2018-09-02T14:58:41.965Z,30.26
2018-09-02T15:01:10.721Z,30.36
2018-09-02T15:03:39.411Z,30.26
2018-09-02T15:06:08.227Z,30.35
2018-09-02T15:08:36.918Z,30.40
2018-09-02T15:11:05.951Z,30.42
2018-09-02T15:13:34.746Z,30.35
2018-09-02T15:16:04.571Z,30.28
2018-09-02T15:18:33.500Z,30.14
2018-09-02T15:21:02.354Z,30.03
2018-09-02T15:23:31.144Z,30.05
2018-09-02T15:25:59.843Z,29.91
2018-09-02T15:28:28.490Z,30.04
2018-09-02T15:30:57.306Z,30.06
2018-09-02T15:33:26.142Z,30.10
2018-09-02T15:35:54.842Z,30.11
2018-09-02T15:38:23.567Z,30.00
2018-09-02T15:40:52.289Z,29.97
2018-09-02T15:43:20.955Z,29.87
2018-09-02T15:45:49.647Z,29.82
2018-09-02T15:48:18.506Z,29.80
2018-09-02T15:50:47.257Z,29.80
2018-09-02T15:53:16.023Z,29.78
2018-09-02T15:55:44.760Z,29.76
2018-09-02T15:58:13.553Z,29.67
2018-09-02T16:00:42.698Z,29.58
2018-09-02T16:03:21.568Z,29.53
2018-09-02T16:05:55.733Z,29.46
2018-09-02T16:08:28.030Z,29.47
2018-09-02T16:10:58.839Z,29.41
2018-09-02T16:13:27.554Z,29.34
2018-09-02T16:15:56.503Z,29.25
2018-09-02T16:18:25.242Z,29.23
2018-09-02T16:20:53.984Z,29.17
2018-09-02T16:23:22.723Z,29.05
2018-09-02T16:25:51.543Z,28.94
2018-09-02T16:28:20.326Z,28.85
2018-09-02T16:30:49.123Z,28.76
2018-09-02T16:33:17.782Z,28.69
2018-09-02T16:35:46.723Z,28.60
2018-09-02T16:38:15.499Z,28.54
2018-09-02T16:40:44.210Z,28.46
2018-09-02T16:43:12.897Z,28.38
2018-09-02T16:45:44.018Z,28.28
2018-09-02T16:48:12.787Z,28.17
2018-09-02T16:50:41.558Z,28.08
2018-09-02T16:53:10.439Z,28.00
2018-09-02T16:55:39.302Z,27.91
2018-09-02T16:58:08.059Z,27.80
2018-09-02T17:00:36.946Z,27.71
2018-09-02T17:03:05.690Z,27.62
2018-09-02T17:05:34.374Z,27.52
2018-09-02T17:08:03.063Z,27.42
2018-09-02T17:10:31.822Z,27.33
2018-09-02T17:13:00.625Z,27.26
2018-09-02T17:15:29.354Z,27.17
2018-09-02T17:17:58.116Z,27.09
2018-09-02T17:20:36.359Z,27.04
2018-09-02T17:23:10.177Z,26.87
2018-09-02T17:25:38.963Z,26.76
2018-09-02T17:28:07.846Z,26.68
2018-09-02T17:30:37.278Z,26.64
2018-09-02T17:33:06.870Z,26.61
2018-09-02T17:35:35.565Z,26.59
2018-09-02T17:38:04.309Z,26.57
2018-09-02T17:40:33.355Z,26.54
2018-09-02T17:43:02.522Z,26.47
2018-09-02T17:45:31.310Z,26.38
2018-09-02T17:48:00.047Z,26.42
2018-09-02T17:50:28.778Z,26.41
2018-09-02T17:52:57.675Z,26.41
2018-09-02T17:55:26.413Z,26.40
2018-09-02T17:57:55.241Z,26.38
2018-09-02T18:00:27.195Z,26.30
2018-09-02T18:02:56.042Z,26.20
2018-09-02T18:05:24.926Z,26.11
2018-09-02T18:07:53.635Z,26.05
2018-09-02T18:10:22.347Z,25.97
2018-09-02T18:12:51.095Z,25.92
2018-09-02T18:15:19.856Z,25.85
2018-09-02T18:17:48.551Z,25.75
2018-09-02T18:20:17.280Z,25.70
2018-09-02T18:22:46.010Z,25.65
2018-09-02T18:25:14.780Z,25.57
2018-09-02T18:27:45.801Z,25.48
2018-09-02T18:30:14.575Z,25.36
2018-09-02T18:32:43.306Z,25.31
2018-09-02T18:35:12.111Z,25.22
2018-09-02T18:37:40.830Z,25.15
2018-09-02T18:40:09.513Z,25.00
2018-09-02T18:42:38.319Z,24.96
2018-09-02T18:45:07.291Z,24.92
2018-09-02T18:47:35.966Z,24.88
2018-09-02T18:50:04.893Z,24.85
2018-09-02T18:52:33.694Z,24.82
2018-09-02T18:55:02.419Z,24.80
2018-09-02T18:57:31.083Z,24.77
2018-09-02T18:59:59.756Z,24.69
2018-09-02T19:02:28.478Z,24.64
2018-09-02T19:04:57.330Z,24.60
2018-09-02T19:07:26.066Z,24.55
2018-09-02T19:09:54.898Z,24.50
2018-09-02T19:12:23.622Z,24.43
2018-09-02T19:14:52.391Z,24.43
2018-09-02T19:17:21.117Z,24.38
2018-09-02T19:19:49.797Z,24.33
2018-09-02T19:22:18.598Z,24.27
2018-09-02T19:24:47.269Z,24.23
2018-09-02T19:27:15.958Z,24.14
2018-09-02T19:29:44.707Z,24.11
2018-09-02T19:32:13.565Z,24.05
2018-09-02T19:34:42.334Z,24.03
2018-09-02T19:37:11.053Z,23.97
2018-09-02T19:39:39.774Z,23.94
2018-09-02T19:42:08.561Z,23.94
2018-09-02T19:44:37.292Z,23.88
2018-09-02T19:47:06.140Z,23.83
2018-09-02T19:49:34.973Z,23.84
2018-09-02T19:52:03.742Z,23.83
2018-09-02T19:54:32.382Z,23.81
2018-09-02T19:57:01.125Z,23.82
2018-09-02T19:59:29.985Z,23.85
2018-09-02T20:01:58.811Z,23.88
2018-09-02T20:04:27.558Z,23.87
2018-09-02T20:06:56.280Z,23.60
2018-09-02T20:09:24.913Z,23.79
2018-09-02T20:11:53.551Z,23.75
2018-09-02T20:14:22.250Z,23.71
2018-09-02T20:16:50.953Z,23.72
2018-09-02T20:19:19.731Z,23.64
2018-09-02T20:21:48.471Z,23.59
2018-09-02T20:24:17.233Z,23.53
2018-09-02T20:26:45.993Z,23.48
2018-09-02T20:29:14.684Z,22.35
2018-09-02T20:31:43.414Z,23.40
2018-09-02T20:34:12.174Z,23.33
2018-09-02T20:36:40.950Z,23.23
2018-09-02T20:39:09.919Z,23.07
2018-09-02T20:41:38.578Z,23.00
2018-09-02T20:44:07.658Z,22.94
2018-09-02T20:46:36.528Z,22.93
2018-09-02T20:49:05.471Z,22.91
2018-09-02T20:51:34.135Z,22.93
2018-09-02T20:54:02.858Z,22.95
2018-09-02T20:56:31.522Z,22.93
2018-09-02T20:59:00.243Z,22.99
2018-09-02T21:01:29.012Z,22.99
2018-09-02T21:03:57.802Z,23.00
2018-09-02T21:06:26.476Z,22.99
2018-09-02T21:08:55.328Z,22.95
2018-09-02T21:11:24.175Z,22.86
2018-09-02T21:13:52.940Z,22.84
2018-09-02T21:16:21.686Z,22.86
2018-09-02T21:18:50.422Z,22.80
2018-09-02T21:21:19.098Z,22.82
2018-09-02T21:23:47.795Z,22.77
2018-09-02T21:26:16.547Z,22.76
2018-09-02T21:28:45.337Z,22.74
2018-09-02T21:31:14.028Z,22.69
2018-09-02T21:33:42.780Z,22.70
2018-09-02T21:36:11.411Z,22.75
2018-09-02T21:38:40.131Z,22.73
2018-09-02T21:41:08.802Z,22.55
2018-09-02T21:43:37.601Z,22.37
2018-09-02T21:46:06.546Z,22.32
2018-09-02T21:48:35.246Z,22.29
2018-09-02T21:51:04.585Z,22.21
2018-09-02T21:53:33.383Z,22.10
2018-09-02T21:56:02.267Z,21.98
2018-09-02T21:58:31.099Z,21.91
2018-09-02T22:00:59.890Z,21.81
2018-09-02T22:03:28.785Z,21.73
2018-09-02T22:05:57.583Z,21.73
2018-09-02T22:08:26.401Z,21.66
2018-09-02T22:10:55.204Z,21.60
2018-09-02T22:13:23.975Z,21.52
2018-09-02T22:15:52.737Z,21.45
2018-09-02T22:18:21.437Z,21.43
2018-09-02T22:20:50.163Z,21.40
2018-09-02T22:23:19.026Z,21.37
2018-09-02T22:25:48.056Z,21.35
2018-09-02T22:28:16.844Z,21.34
2018-09-02T22:30:45.557Z,21.30
2018-09-02T22:33:14.305Z,21.24
2018-09-02T22:35:43.093Z,21.16
2018-09-02T22:38:12.324Z,21.08
2018-09-02T22:40:41.064Z,21.05
2018-09-02T22:43:09.805Z,21.00
2018-09-02T22:45:38.817Z,20.92
2018-09-02T22:48:07.891Z,20.83
2018-09-02T22:50:36.551Z,20.67
2018-09-02T22:53:05.278Z,20.79
2018-09-02T22:55:34.038Z,20.76
2018-09-02T22:58:02.833Z,20.71
2018-09-02T23:00:31.650Z,20.69
2018-09-02T23:03:00.323Z,20.67
2018-09-02T23:05:28.990Z,20.64
2018-09-02T23:07:57.700Z,20.61
2018-09-02T23:10:26.442Z,20.60
2018-09-02T23:12:55.281Z,20.59
2018-09-02T23:15:24.162Z,20.54
2018-09-02T23:17:52.926Z,20.60
2018-09-02T23:20:21.786Z,20.53
2018-09-02T23:22:50.687Z,20.46
2018-09-02T23:25:19.603Z,20.40
2018-09-02T23:27:48.420Z,19.35
2018-09-02T23:30:17.191Z,20.41
2018-09-02T23:32:45.902Z,20.42
2018-09-02T23:35:14.582Z,20.40
2018-09-02T23:37:43.271Z,20.37
2018-09-02T23:40:12.005Z,20.32
2018-09-02T23:42:40.716Z,20.30
2018-09-02T23:45:09.421Z,20.29
2018-09-02T23:47:38.275Z,20.31
2018-09-02T23:50:07.170Z,20.30
2018-09-02T23:52:36.011Z,20.24
2018-09-02T23:55:04.947Z,20.28
2018-09-02T23:57:33.592Z,20.31
